sensor_id;sensor_type;location;lat;lon;timestamp;temperature;humidity
14192;DHT22;7177;48.572;7.838;2023-01-15T00:01:00;11.10;99.90
14192;DHT22;7177;48.572;7.838;2023-01-15T00:03:27;11.10;99.90
14192;DHT22;7177;48.572;7.838;2023-01-15T00:05:53;11.30;99.90
14192;DHT22;7177;48.572;7.838;2023-01-15T00:08:18;11.30;99.90
14192;DHT22;7177;48.572;7.838;2023-01-15T00:10:44;11.40;99.90
14192;DHT22;7177;48.572;7.838;2023-01-15T00:13:10;11.40;99.90
14192;DHT22;7177;48.572;7.838;2023-01-15T00:15:35;11.50;99.90
14192;DHT22;7177;48.572;7.838;2023-01-15T00:18:01;11.50;99.90
14192;DHT22;7177;48.572;7.838;2023-01-15T00:20:27;11.50;99.90
14192;DHT22;7177;48.572;7.838;2023-01-15T00:22:53;11.60;99.90
14192;DHT22;7177;48.572;7.838;2023-01-15T00:25:18;11.60;99.90
14192;DHT22;7177;48.572;7.838;2023-01-15T00:28:02;11.60;99.90
14192;DHT22;7177;48.572;7.838;2023-01-15T00:30:28;11.50;99.90
14192;DHT22;7177;48.572;7.838;2023-01-15T00:32:54;11.60;99.90
14192;DHT22;7177;48.572;7.838;2023-01-15T00:35:21;11.60;99.90
14192;DHT22;7177;48.572;7.838;2023-01-15T00:37:47;11.60;99.90
14192;DHT22;7177;48.572;7.838;2023-01-15T00:40:14;11.60;99.90
14192;DHT22;7177;48.572;7.838;2023-01-15T00:42:40;11.50;99.90
14192;DHT22;7177;48.572;7.838;2023-01-15T00:45:06;11.50;99.90
14192;DHT22;7177;48.572;7.838;2023-01-15T00:47:43;11.40;99.90
14192;DHT22;7177;48.572;7.838;2023-01-15T00:50:11;11.40;99.90
14192;DHT22;7177;48.572;7.838;2023-01-15T00:52:37;11.40;99.90
14192;DHT22;7177;48.572;7.838;2023-01-15T00:55:04;11.40;99.90
14192;DHT22;7177;48.572;7.838;2023-01-15T00:57:30;11.40;99.90
14192;DHT22;7177;48.572;7.838;2023-01-15T00:59:56;11.40;99.90
14192;DHT22;7177;48.572;7.838;2023-01-15T01:02:21;11.40;99.90
14192;DHT22;7177;48.572;7.838;2023-01-15T01:04:47;11.30;99.90
14192;DHT22;7177;48.572;7.838;2023-01-15T01:07:13;11.30;99.90
14192;DHT22;7177;48.572;7.838;2023-01-15T01:09:38;11.30;99.90
14192;DHT22;7177;48.572;7.838;2023-01-15T01:12:04;11.30;99.90
14192;DHT22;7177;48.572;7.838;2023-01-15T01:14:30;11.30;99.90
14192;DHT22;7177;48.572;7.838;2023-01-15T01:16:56;11.30;99.90
14192;DHT22;7177;48.572;7.838;2023-01-15T01:19:22;11.40;99.90
14192;DHT22;7177;48.572;7.838;2023-01-15T01:21:50;11.40;99.90
14192;DHT22;7177;48.572;7.838;2023-01-15T01:24:18;11.40;99.90
14192;DHT22;7177;48.572;7.838;2023-01-15T01:26:45;11.40;99.90
14192;DHT22;7177;48.572;7.838;2023-01-15T01:29:15;11.40;99.90
14192;DHT22;7177;48.572;7.838;2023-01-15T01:31:41;11.40;99.90
14192;DHT22;7177;48.572;7.838;2023-01-15T01:34:08;11.50;99.90
14192;DHT22;7177;48.572;7.838;2023-01-15T01:36:35;11.50;99.90
14192;DHT22;7177;48.572;7.838;2023-01-15T01:39:01;11.40;99.90
14192;DHT22;7177;48.572;7.838;2023-01-15T01:41:27;11.40;99.90
14192;DHT22;7177;48.572;7.838;2023-01-15T01:46:26;11.40;99.90
14192;DHT22;7177;48.572;7.838;2023-01-15T01:51:28;11.50;99.90
14192;DHT22;7177;48.572;7.838;2023-01-15T01:53:55;11.40;99.90
14192;DHT22;7177;48.572;7.838;2023-01-15T01:56:22;11.40;99.90
14192;DHT22;7177;48.572;7.838;2023-01-15T01:58:51;11.40;99.90
14192;DHT22;7177;48.572;7.838;2023-01-15T02:01:19;11.40;99.90
14192;DHT22;7177;48.572;7.838;2023-01-15T02:03:46;11.40;99.90
14192;DHT22;7177;48.572;7.838;2023-01-15T02:06:13;11.40;99.90
14192;DHT22;7177;48.572;7.838;2023-01-15T02:08:40;11.40;99.90
14192;DHT22;7177;48.572;7.838;2023-01-15T02:11:07;11.40;99.90
14192;DHT22;7177;48.572;7.838;2023-01-15T02:13:39;11.40;99.90
14192;DHT22;7177;48.572;7.838;2023-01-15T02:16:12;11.30;99.90
14192;DHT22;7177;48.572;7.838;2023-01-15T02:18:55;11.30;99.90
14192;DHT22;7177;48.572;7.838;2023-01-15T02:29:29;11.20;99.90
14192;DHT22;7177;48.572;7.838;2023-01-15T02:31:59;11.20;99.90
14192;DHT22;7177;48.572;7.838;2023-01-15T02:34:30;11.20;99.90
14192;DHT22;7177;48.572;7.838;2023-01-15T02:37:02;11.20;99.90
14192;DHT22;7177;48.572;7.838;2023-01-15T02:39:30;11.20;99.90
14192;DHT22;7177;48.572;7.838;2023-01-15T02:42:00;11.20;99.90
14192;DHT22;7177;48.572;7.838;2023-01-15T02:44:28;11.10;99.90
14192;DHT22;7177;48.572;7.838;2023-01-15T02:46:55;11.20;99.90
14192;DHT22;7177;48.572;7.838;2023-01-15T02:49:22;11.20;99.90
14192;DHT22;7177;48.572;7.838;2023-01-15T02:51:59;11.30;99.90
14192;DHT22;7177;48.572;7.838;2023-01-15T02:54:30;11.30;99.90
14192;DHT22;7177;48.572;7.838;2023-01-15T02:56:59;11.30;99.90
14192;DHT22;7177;48.572;7.838;2023-01-15T02:59:41;11.30;99.90
14192;DHT22;7177;48.572;7.838;2023-01-15T03:02:14;11.50;99.90
14192;DHT22;7177;48.572;7.838;2023-01-15T03:07:31;11.70;99.90
14192;DHT22;7177;48.572;7.838;2023-01-15T03:09:59;11.70;99.90
14192;DHT22;7177;48.572;7.838;2023-01-15T03:12:42;11.70;99.90
14192;DHT22;7177;48.572;7.838;2023-01-15T03:15:33;11.70;99.90
14192;DHT22;7177;48.572;7.838;2023-01-15T03:18:20;11.70;99.90
14192;DHT22;7177;48.572;7.838;2023-01-15T03:20:50;11.50;99.90
14192;DHT22;7177;48.572;7.838;2023-01-15T03:23:18;11.50;99.90
14192;DHT22;7177;48.572;7.838;2023-01-15T03:25:48;11.60;99.90
14192;DHT22;7177;48.572;7.838;2023-01-15T03:28:17;11.60;99.90
14192;DHT22;7177;48.572;7.838;2023-01-15T03:30:44;11.60;99.90
14192;DHT22;7177;48.572;7.838;2023-01-15T03:33:09;11.60;99.90
14192;DHT22;7177;48.572;7.838;2023-01-15T03:35:51;11.60;99.90
14192;DHT22;7177;48.572;7.838;2023-01-15T03:38:21;11.60;99.90
14192;DHT22;7177;48.572;7.838;2023-01-15T03:40:57;11.70;99.90
14192;DHT22;7177;48.572;7.838;2023-01-15T03:43:39;11.80;99.90
14192;DHT22;7177;48.572;7.838;2023-01-15T03:46:13;11.70;99.90
14192;DHT22;7177;48.572;7.838;2023-01-15T03:48:53;11.70;99.90
14192;DHT22;7177;48.572;7.838;2023-01-15T03:51:24;11.70;99.90
14192;DHT22;7177;48.572;7.838;2023-01-15T03:53:55;11.70;99.90
14192;DHT22;7177;48.572;7.838;2023-01-15T03:56:32;11.70;99.90
14192;DHT22;7177;48.572;7.838;2023-01-15T03:59:10;11.70;99.90
14192;DHT22;7177;48.572;7.838;2023-01-15T04:01:39;11.70;99.90
14192;DHT22;7177;48.572;7.838;2023-01-15T04:04:06;11.70;99.90
14192;DHT22;7177;48.572;7.838;2023-01-15T04:06:35;11.60;99.90
14192;DHT22;7177;48.572;7.838;2023-01-15T04:09:04;11.40;99.90
14192;DHT22;7177;48.572;7.838;2023-01-15T04:11:30;11.00;99.90
14192;DHT22;7177;48.572;7.838;2023-01-15T04:13:56;10.50;99.90
14192;DHT22;7177;48.572;7.838;2023-01-15T04:16:28;10.00;99.90
14192;DHT22;7177;48.572;7.838;2023-01-15T04:18:54;9.50;99.90
14192;DHT22;7177;48.572;7.838;2023-01-15T04:21:20;9.20;99.90
14192;DHT22;7177;48.572;7.838;2023-01-15T04:23:46;8.90;99.90
14192;DHT22;7177;48.572;7.838;2023-01-15T04:26:12;8.80;99.90
14192;DHT22;7177;48.572;7.838;2023-01-15T04:28:38;8.60;99.90
14192;DHT22;7177;48.572;7.838;2023-01-15T04:31:03;8.50;99.90
14192;DHT22;7177;48.572;7.838;2023-01-15T04:33:29;8.40;99.90
14192;DHT22;7177;48.572;7.838;2023-01-15T04:35:57;8.30;99.90
14192;DHT22;7177;48.572;7.838;2023-01-15T04:38:22;8.20;99.90
14192;DHT22;7177;48.572;7.838;2023-01-15T04:40:48;8.20;99.90
14192;DHT22;7177;48.572;7.838;2023-01-15T04:43:32;8.10;99.90
14192;DHT22;7177;48.572;7.838;2023-01-15T04:46:22;8.10;99.90
14192;DHT22;7177;48.572;7.838;2023-01-15T04:48:48;8.10;99.90
14192;DHT22;7177;48.572;7.838;2023-01-15T04:51:14;8.00;99.90
14192;DHT22;7177;48.572;7.838;2023-01-15T04:53:39;7.90;99.90
14192;DHT22;7177;48.572;7.838;2023-01-15T04:56:05;7.80;99.90
14192;DHT22;7177;48.572;7.838;2023-01-15T04:58:32;7.80;99.90
14192;DHT22;7177;48.572;7.838;2023-01-15T05:00:58;7.70;99.90
14192;DHT22;7177;48.572;7.838;2023-01-15T05:03:25;7.70;99.90
14192;DHT22;7177;48.572;7.838;2023-01-15T05:05:51;7.70;99.90
14192;DHT22;7177;48.572;7.838;2023-01-15T05:08:17;7.70;99.90
14192;DHT22;7177;48.572;7.838;2023-01-15T05:10:42;7.60;99.90
14192;DHT22;7177;48.572;7.838;2023-01-15T05:13:08;7.60;99.90
14192;DHT22;7177;48.572;7.838;2023-01-15T05:18:01;7.60;99.90
14192;DHT22;7177;48.572;7.838;2023-01-15T05:20:27;7.60;99.90
14192;DHT22;7177;48.572;7.838;2023-01-15T05:22:52;7.60;99.90
14192;DHT22;7177;48.572;7.838;2023-01-15T05:25:18;7.60;99.90
14192;DHT22;7177;48.572;7.838;2023-01-15T05:27:43;7.60;99.90
14192;DHT22;7177;48.572;7.838;2023-01-15T05:30:09;7.60;99.90
14192;DHT22;7177;48.572;7.838;2023-01-15T05:32:35;7.60;99.90
14192;DHT22;7177;48.572;7.838;2023-01-15T05:35:00;7.50;99.90
14192;DHT22;7177;48.572;7.838;2023-01-15T05:37:28;7.50;99.90
14192;DHT22;7177;48.572;7.838;2023-01-15T05:39:54;7.50;99.90
14192;DHT22;7177;48.572;7.838;2023-01-15T05:42:20;7.40;99.90
14192;DHT22;7177;48.572;7.838;2023-01-15T05:44:45;7.50;99.90
14192;DHT22;7177;48.572;7.838;2023-01-15T05:47:11;7.40;99.90
14192;DHT22;7177;48.572;7.838;2023-01-15T05:49:36;7.40;99.90
14192;DHT22;7177;48.572;7.838;2023-01-15T05:52:02;7.40;99.90
14192;DHT22;7177;48.572;7.838;2023-01-15T05:54:33;7.40;99.90
14192;DHT22;7177;48.572;7.838;2023-01-15T05:56:58;7.40;99.90
14192;DHT22;7177;48.572;7.838;2023-01-15T05:59:26;7.40;99.90
14192;DHT22;7177;48.572;7.838;2023-01-15T06:01:53;7.40;99.90
14192;DHT22;7177;48.572;7.838;2023-01-15T06:04:19;7.60;99.90
14192;DHT22;7177;48.572;7.838;2023-01-15T06:06:47;7.70;99.90
14192;DHT22;7177;48.572;7.838;2023-01-15T06:09:13;7.80;99.90
14192;DHT22;7177;48.572;7.838;2023-01-15T06:11:39;7.60;99.90
14192;DHT22;7177;48.572;7.838;2023-01-15T06:14:05;7.50;99.90
14192;DHT22;7177;48.572;7.838;2023-01-15T06:16:31;7.30;99.90
14192;DHT22;7177;48.572;7.838;2023-01-15T06:19:04;7.30;99.90
14192;DHT22;7177;48.572;7.838;2023-01-15T06:21:31;7.30;99.90
14192;DHT22;7177;48.572;7.838;2023-01-15T06:23:57;7.20;99.90
14192;DHT22;7177;48.572;7.838;2023-01-15T06:26:23;7.20;99.90
14192;DHT22;7177;48.572;7.838;2023-01-15T06:28:49;7.20;99.90
14192;DHT22;7177;48.572;7.838;2023-01-15T06:31:17;7.10;99.90
14192;DHT22;7177;48.572;7.838;2023-01-15T06:33:43;7.10;99.90
14192;DHT22;7177;48.572;7.838;2023-01-15T06:36:14;7.10;99.90
14192;DHT22;7177;48.572;7.838;2023-01-15T06:38:41;7.10;99.90
14192;DHT22;7177;48.572;7.838;2023-01-15T06:41:10;7.10;99.90
14192;DHT22;7177;48.572;7.838;2023-01-15T06:43:55;7.10;99.90
14192;DHT22;7177;48.572;7.838;2023-01-15T06:46:47;7.10;99.90
14192;DHT22;7177;48.572;7.838;2023-01-15T06:49:32;7.10;99.90
14192;DHT22;7177;48.572;7.838;2023-01-15T06:51:58;7.10;99.90
14192;DHT22;7177;48.572;7.838;2023-01-15T06:54:24;7.10;99.90
14192;DHT22;7177;48.572;7.838;2023-01-15T06:56:50;7.10;99.90
14192;DHT22;7177;48.572;7.838;2023-01-15T06:59:16;7.10;99.90
14192;DHT22;7177;48.572;7.838;2023-01-15T07:01:41;7.10;99.90
14192;DHT22;7177;48.572;7.838;2023-01-15T07:04:07;7.10;99.90
14192;DHT22;7177;48.572;7.838;2023-01-15T07:06:32;7.10;99.90
14192;DHT22;7177;48.572;7.838;2023-01-15T07:08:58;7.00;99.90
14192;DHT22;7177;48.572;7.838;2023-01-15T07:11:24;7.00;99.90
14192;DHT22;7177;48.572;7.838;2023-01-15T07:13:49;7.00;99.90
14192;DHT22;7177;48.572;7.838;2023-01-15T07:16:15;7.00;99.90
14192;DHT22;7177;48.572;7.838;2023-01-15T07:18:55;7.00;99.90
14192;DHT22;7177;48.572;7.838;2023-01-15T07:21:21;7.00;99.90
14192;DHT22;7177;48.572;7.838;2023-01-15T07:23:47;6.90;99.90
14192;DHT22;7177;48.572;7.838;2023-01-15T07:26:13;6.90;99.90
14192;DHT22;7177;48.572;7.838;2023-01-15T07:28:39;6.80;99.90
14192;DHT22;7177;48.572;7.838;2023-01-15T07:31:04;6.80;99.90
14192;DHT22;7177;48.572;7.838;2023-01-15T07:33:30;6.80;99.90
14192;DHT22;7177;48.572;7.838;2023-01-15T07:35:55;6.70;99.90
14192;DHT22;7177;48.572;7.838;2023-01-15T07:38:21;6.70;99.90
14192;DHT22;7177;48.572;7.838;2023-01-15T07:40:47;6.70;99.90
14192;DHT22;7177;48.572;7.838;2023-01-15T07:43:33;6.70;99.90
14192;DHT22;7177;48.572;7.838;2023-01-15T07:46:17;6.60;99.90
14192;DHT22;7177;48.572;7.838;2023-01-15T07:49:01;6.60;99.90
14192;DHT22;7177;48.572;7.838;2023-01-15T07:51:45;6.60;99.90
14192;DHT22;7177;48.572;7.838;2023-01-15T07:54:10;6.60;99.90
14192;DHT22;7177;48.572;7.838;2023-01-15T07:56:36;6.60;99.90
14192;DHT22;7177;48.572;7.838;2023-01-15T07:59:02;6.70;99.90
14192;DHT22;7177;48.572;7.838;2023-01-15T08:01:27;6.70;99.90
14192;DHT22;7177;48.572;7.838;2023-01-15T08:03:53;6.70;99.90
14192;DHT22;7177;48.572;7.838;2023-01-15T08:06:18;6.70;99.90
14192;DHT22;7177;48.572;7.838;2023-01-15T08:08:44;6.70;99.90
14192;DHT22;7177;48.572;7.838;2023-01-15T08:11:10;6.70;99.90
14192;DHT22;7177;48.572;7.838;2023-01-15T08:13:54;6.70;99.90
14192;DHT22;7177;48.572;7.838;2023-01-15T08:16:45;6.70;99.90
14192;DHT22;7177;48.572;7.838;2023-01-15T08:19:11;6.70;99.90
14192;DHT22;7177;48.572;7.838;2023-01-15T08:21:36;6.70;99.90
14192;DHT22;7177;48.572;7.838;2023-01-15T08:24:02;6.60;99.90
14192;DHT22;7177;48.572;7.838;2023-01-15T08:26:27;6.70;99.90
14192;DHT22;7177;48.572;7.838;2023-01-15T08:28:53;6.70;99.90
14192;DHT22;7177;48.572;7.838;2023-01-15T08:31:18;6.70;99.90
14192;DHT22;7177;48.572;7.838;2023-01-15T08:33:44;6.70;99.90
14192;DHT22;7177;48.572;7.838;2023-01-15T08:36:09;6.70;99.90
14192;DHT22;7177;48.572;7.838;2023-01-15T08:38:35;6.70;99.90
14192;DHT22;7177;48.572;7.838;2023-01-15T08:41:01;6.90;99.90
14192;DHT22;7177;48.572;7.838;2023-01-15T08:43:30;7.00;99.90
14192;DHT22;7177;48.572;7.838;2023-01-15T08:45:59;6.90;99.90
14192;DHT22;7177;48.572;7.838;2023-01-15T08:48:25;6.90;99.90
14192;DHT22;7177;48.572;7.838;2023-01-15T08:50:52;6.80;99.90
14192;DHT22;7177;48.572;7.838;2023-01-15T08:53:18;6.80;99.90
14192;DHT22;7177;48.572;7.838;2023-01-15T08:55:44;6.80;99.90
14192;DHT22;7177;48.572;7.838;2023-01-15T08:58:10;6.70;99.90
14192;DHT22;7177;48.572;7.838;2023-01-15T09:00:36;6.70;99.90
14192;DHT22;7177;48.572;7.838;2023-01-15T09:03:02;6.70;99.90
14192;DHT22;7177;48.572;7.838;2023-01-15T09:05:27;6.70;99.90
14192;DHT22;7177;48.572;7.838;2023-01-15T09:07:53;6.60;99.90
14192;DHT22;7177;48.572;7.838;2023-01-15T09:10:19;6.60;99.90
14192;DHT22;7177;48.572;7.838;2023-01-15T09:12:45;6.60;99.90
14192;DHT22;7177;48.572;7.838;2023-01-15T09:15:10;6.60;99.90
14192;DHT22;7177;48.572;7.838;2023-01-15T09:17:36;6.60;99.90
14192;DHT22;7177;48.572;7.838;2023-01-15T09:20:07;6.60;99.90
14192;DHT22;7177;48.572;7.838;2023-01-15T09:22:32;6.60;99.90
14192;DHT22;7177;48.572;7.838;2023-01-15T09:24:58;6.60;99.90
14192;DHT22;7177;48.572;7.838;2023-01-15T09:27:25;6.60;99.90
14192;DHT22;7177;48.572;7.838;2023-01-15T09:29:51;6.60;99.90
14192;DHT22;7177;48.572;7.838;2023-01-15T09:32:16;6.50;99.90
14192;DHT22;7177;48.572;7.838;2023-01-15T09:34:42;6.60;99.90
14192;DHT22;7177;48.572;7.838;2023-01-15T09:37:07;6.50;99.90
14192;DHT22;7177;48.572;7.838;2023-01-15T09:39:33;6.60;99.90
14192;DHT22;7177;48.572;7.838;2023-01-15T09:55:33;6.30;99.90
14192;DHT22;7177;48.572;7.838;2023-01-15T09:58:02;6.30;99.90
14192;DHT22;7177;48.572;7.838;2023-01-15T10:00:34;6.30;99.90
14192;DHT22;7177;48.572;7.838;2023-01-15T10:03:14;6.30;99.90
14192;DHT22;7177;48.572;7.838;2023-01-15T10:05:47;6.30;99.90
14192;DHT22;7177;48.572;7.838;2023-01-15T10:08:23;6.20;99.90
14192;DHT22;7177;48.572;7.838;2023-01-15T10:11:15;6.30;99.90
14192;DHT22;7177;48.572;7.838;2023-01-15T10:13:51;6.30;99.90
14192;DHT22;7177;48.572;7.838;2023-01-15T10:16:31;6.20;99.90
14192;DHT22;7177;48.572;7.838;2023-01-15T10:19:01;6.20;99.90
14192;DHT22;7177;48.572;7.838;2023-01-15T10:26:36;6.20;99.90
14192;DHT22;7177;48.572;7.838;2023-01-15T10:37:17;5.60;99.90
14192;DHT22;7177;48.572;7.838;2023-01-15T10:42:54;5.20;99.90
14192;DHT22;7177;48.572;7.838;2023-01-15T10:45:29;5.10;99.90
14192;DHT22;7177;48.572;7.838;2023-01-15T10:48:03;5.10;99.90
14192;DHT22;7177;48.572;7.838;2023-01-15T10:50:31;5.00;99.90
14192;DHT22;7177;48.572;7.838;2023-01-15T10:53:19;5.00;99.90
14192;DHT22;7177;48.572;7.838;2023-01-15T10:55:51;5.10;99.90
14192;DHT22;7177;48.572;7.838;2023-01-15T11:00:57;5.10;99.90
14192;DHT22;7177;48.572;7.838;2023-01-15T11:03:43;5.20;99.90
14192;DHT22;7177;48.572;7.838;2023-01-15T11:06:20;5.20;99.90
14192;DHT22;7177;48.572;7.838;2023-01-15T11:08:54;5.30;99.90
14192;DHT22;7177;48.572;7.838;2023-01-15T11:11:45;5.30;99.90
14192;DHT22;7177;48.572;7.838;2023-01-15T11:17:21;5.40;99.90
14192;DHT22;7177;48.572;7.838;2023-01-15T11:20:31;5.30;99.90
14192;DHT22;7177;48.572;7.838;2023-01-15T11:23:08;5.40;99.90
14192;DHT22;7177;48.572;7.838;2023-01-15T11:25:35;5.40;99.90
14192;DHT22;7177;48.572;7.838;2023-01-15T11:28:04;5.40;99.90
14192;DHT22;7177;48.572;7.838;2023-01-15T11:30:32;5.50;99.90
14192;DHT22;7177;48.572;7.838;2023-01-15T11:33:00;5.50;99.90
14192;DHT22;7177;48.572;7.838;2023-01-15T11:35:29;5.50;99.90
14192;DHT22;7177;48.572;7.838;2023-01-15T11:38:09;5.60;99.90
14192;DHT22;7177;48.572;7.838;2023-01-15T11:40:37;5.50;99.90
14192;DHT22;7177;48.572;7.838;2023-01-15T11:43:02;5.60;99.90
14192;DHT22;7177;48.572;7.838;2023-01-15T11:45:51;5.60;99.90
14192;DHT22;7177;48.572;7.838;2023-01-15T11:48:46;5.60;99.90
14192;DHT22;7177;48.572;7.838;2023-01-15T11:51:34;5.60;99.90
14192;DHT22;7177;48.572;7.838;2023-01-15T11:54:04;5.70;99.90
14192;DHT22;7177;48.572;7.838;2023-01-15T11:56:33;5.70;99.90
14192;DHT22;7177;48.572;7.838;2023-01-15T11:59:02;5.70;99.90
14192;DHT22;7177;48.572;7.838;2023-01-15T12:01:31;5.70;99.90
14192;DHT22;7177;48.572;7.838;2023-01-15T12:04:01;5.70;99.90
14192;DHT22;7177;48.572;7.838;2023-01-15T12:06:29;5.70;99.90
14192;DHT22;7177;48.572;7.838;2023-01-15T12:12:02;5.60;99.90
14192;DHT22;7177;48.572;7.838;2023-01-15T12:20:28;5.50;99.90
14192;DHT22;7177;48.572;7.838;2023-01-15T12:23:06;5.50;99.90
14192;DHT22;7177;48.572;7.838;2023-01-15T12:28:31;5.40;99.90
14192;DHT22;7177;48.572;7.838;2023-01-15T12:31:07;5.40;99.90
14192;DHT22;7177;48.572;7.838;2023-01-15T12:34:05;5.50;99.90
14192;DHT22;7177;48.572;7.838;2023-01-15T12:36:54;5.70;99.90
14192;DHT22;7177;48.572;7.838;2023-01-15T12:39:26;6.00;99.90
14192;DHT22;7177;48.572;7.838;2023-01-15T12:41:57;6.30;99.90
14192;DHT22;7177;48.572;7.838;2023-01-15T12:44:57;7.10;99.90
14192;DHT22;7177;48.572;7.838;2023-01-15T12:47:48;7.60;99.90
14192;DHT22;7177;48.572;7.838;2023-01-15T12:50:40;7.80;99.90
14192;DHT22;7177;48.572;7.838;2023-01-15T12:56:18;8.00;99.90
14192;DHT22;7177;48.572;7.838;2023-01-15T13:06:57;8.60;99.90
14192;DHT22;7177;48.572;7.838;2023-01-15T13:11:56;7.90;99.90
14192;DHT22;7177;48.572;7.838;2023-01-15T13:14:22;7.60;99.90
14192;DHT22;7177;48.572;7.838;2023-01-15T13:17:01;7.30;99.90
14192;DHT22;7177;48.572;7.838;2023-01-15T13:22:16;7.00;99.90
14192;DHT22;7177;48.572;7.838;2023-01-15T13:25:26;6.80;99.90
14192;DHT22;7177;48.572;7.838;2023-01-15T13:27:53;6.80;99.90
14192;DHT22;7177;48.572;7.838;2023-01-15T13:32:58;7.00;99.90
14192;DHT22;7177;48.572;7.838;2023-01-15T13:35:36;7.00;99.90
14192;DHT22;7177;48.572;7.838;2023-01-15T13:38:05;7.00;99.90
14192;DHT22;7177;48.572;7.838;2023-01-15T13:40:40;7.00;99.90
14192;DHT22;7177;48.572;7.838;2023-01-15T13:43:07;7.00;99.90
14192;DHT22;7177;48.572;7.838;2023-01-15T13:45:48;6.90;99.90
14192;DHT22;7177;48.572;7.838;2023-01-15T13:48:17;6.90;99.90
14192;DHT22;7177;48.572;7.838;2023-01-15T13:50:57;6.90;99.90
14192;DHT22;7177;48.572;7.838;2023-01-15T13:53:30;6.90;99.90
14192;DHT22;7177;48.572;7.838;2023-01-15T13:56:09;6.90;99.90
14192;DHT22;7177;48.572;7.838;2023-01-15T13:58:38;6.90;99.90
14192;DHT22;7177;48.572;7.838;2023-01-15T14:04:05;7.00;99.90
14192;DHT22;7177;48.572;7.838;2023-01-15T14:09:01;7.20;99.90
14192;DHT22;7177;48.572;7.838;2023-01-15T14:11:35;7.50;99.90
14192;DHT22;7177;48.572;7.838;2023-01-15T14:16:58;7.70;99.90
14192;DHT22;7177;48.572;7.838;2023-01-15T14:25:13;7.50;99.90
14192;DHT22;7177;48.572;7.838;2023-01-15T14:35:54;8.10;99.90
14192;DHT22;7177;48.572;7.838;2023-01-15T14:38:23;7.70;99.90
14192;DHT22;7177;48.572;7.838;2023-01-15T14:40:56;7.50;99.90
14192;DHT22;7177;48.572;7.838;2023-01-15T14:43:25;7.40;99.90
14192;DHT22;7177;48.572;7.838;2023-01-15T14:45:51;7.40;99.90
14192;DHT22;7177;48.572;7.838;2023-01-15T14:51:15;7.20;99.90
14192;DHT22;7177;48.572;7.838;2023-01-15T14:53:56;7.20;99.90
14192;DHT22;7177;48.572;7.838;2023-01-15T14:56:30;7.20;99.90
14192;DHT22;7177;48.572;7.838;2023-01-15T14:59:16;7.10;99.90
14192;DHT22;7177;48.572;7.838;2023-01-15T15:04:21;7.00;99.90
14192;DHT22;7177;48.572;7.838;2023-01-15T15:07:02;7.00;99.90
14192;DHT22;7177;48.572;7.838;2023-01-15T15:12:00;7.00;99.90
14192;DHT22;7177;48.572;7.838;2023-01-15T15:14:57;7.00;99.90
14192;DHT22;7177;48.572;7.838;2023-01-15T15:20:32;6.90;99.90
14192;DHT22;7177;48.572;7.838;2023-01-15T15:23:12;6.80;99.90
14192;DHT22;7177;48.572;7.838;2023-01-15T15:25:40;6.90;99.90
14192;DHT22;7177;48.572;7.838;2023-01-15T15:28:09;6.80;99.90
14192;DHT22;7177;48.572;7.838;2023-01-15T15:30:41;6.80;99.90
14192;DHT22;7177;48.572;7.838;2023-01-15T15:33:15;6.80;99.90
14192;DHT22;7177;48.572;7.838;2023-01-15T15:35:44;6.80;99.90
14192;DHT22;7177;48.572;7.838;2023-01-15T15:38:16;6.80;99.90
14192;DHT22;7177;48.572;7.838;2023-01-15T15:40:47;6.80;99.90
14192;DHT22;7177;48.572;7.838;2023-01-15T15:43:47;6.70;99.90
14192;DHT22;7177;48.572;7.838;2023-01-15T15:46:27;6.70;99.90
14192;DHT22;7177;48.572;7.838;2023-01-15T15:49:11;6.70;99.90
14192;DHT22;7177;48.572;7.838;2023-01-15T15:51:47;6.70;99.90
14192;DHT22;7177;48.572;7.838;2023-01-15T15:54:25;6.60;99.90
14192;DHT22;7177;48.572;7.838;2023-01-15T15:57:03;6.50;99.90
14192;DHT22;7177;48.572;7.838;2023-01-15T15:59:42;6.40;99.90
14192;DHT22;7177;48.572;7.838;2023-01-15T16:02:38;6.40;99.90
14192;DHT22;7177;48.572;7.838;2023-01-15T16:07:43;6.30;99.90
14192;DHT22;7177;48.572;7.838;2023-01-15T16:10:18;6.20;99.90
14192;DHT22;7177;48.572;7.838;2023-01-15T16:12:51;6.20;99.90
14192;DHT22;7177;48.572;7.838;2023-01-15T16:15:28;6.20;99.90
14192;DHT22;7177;48.572;7.838;2023-01-15T16:17:59;6.10;99.90
14192;DHT22;7177;48.572;7.838;2023-01-15T16:20:26;6.00;99.90
14192;DHT22;7177;48.572;7.838;2023-01-15T16:22:57;6.10;99.90
14192;DHT22;7177;48.572;7.838;2023-01-15T16:25:25;6.00;99.90
14192;DHT22;7177;48.572;7.838;2023-01-15T16:27:52;5.90;99.90
14192;DHT22;7177;48.572;7.838;2023-01-15T16:30:18;6.00;99.90
14192;DHT22;7177;48.572;7.838;2023-01-15T16:32:45;5.90;99.90
14192;DHT22;7177;48.572;7.838;2023-01-15T16:35:16;5.90;99.90
14192;DHT22;7177;48.572;7.838;2023-01-15T16:37:46;5.90;99.90
14192;DHT22;7177;48.572;7.838;2023-01-15T16:40:36;5.90;99.90
14192;DHT22;7177;48.572;7.838;2023-01-15T16:45:31;5.90;99.90
14192;DHT22;7177;48.572;7.838;2023-01-15T16:48:29;5.90;99.90
14192;DHT22;7177;48.572;7.838;2023-01-15T16:50:58;5.90;99.90
14192;DHT22;7177;48.572;7.838;2023-01-15T16:53:43;5.90;99.90
14192;DHT22;7177;48.572;7.838;2023-01-15T16:59:00;6.00;99.90
14192;DHT22;7177;48.572;7.838;2023-01-15T17:01:38;6.00;99.90
14192;DHT22;7177;48.572;7.838;2023-01-15T17:04:35;6.00;99.90
14192;DHT22;7177;48.572;7.838;2023-01-15T17:09:46;6.00;99.90
14192;DHT22;7177;48.572;7.838;2023-01-15T17:12:28;6.00;99.90
14192;DHT22;7177;48.572;7.838;2023-01-15T17:17:40;5.90;99.90
14192;DHT22;7177;48.572;7.838;2023-01-15T17:20:08;6.00;99.90
14192;DHT22;7177;48.572;7.838;2023-01-15T17:22:35;5.80;99.90
14192;DHT22;7177;48.572;7.838;2023-01-15T17:25:02;5.90;99.90
14192;DHT22;7177;48.572;7.838;2023-01-15T17:27:28;5.90;99.90
14192;DHT22;7177;48.572;7.838;2023-01-15T17:29:54;5.80;99.90
14192;DHT22;7177;48.572;7.838;2023-01-15T17:32:29;5.80;99.90
14192;DHT22;7177;48.572;7.838;2023-01-15T17:34:55;5.80;99.90
14192;DHT22;7177;48.572;7.838;2023-01-15T17:37:20;5.80;99.90
14192;DHT22;7177;48.572;7.838;2023-01-15T17:39:46;5.80;99.90
14192;DHT22;7177;48.572;7.838;2023-01-15T17:42:16;5.80;99.90
14192;DHT22;7177;48.572;7.838;2023-01-15T17:44:42;5.80;99.90
14192;DHT22;7177;48.572;7.838;2023-01-15T17:47:08;5.70;99.90
14192;DHT22;7177;48.572;7.838;2023-01-15T17:49:34;5.70;99.90
14192;DHT22;7177;48.572;7.838;2023-01-15T17:52:01;5.70;99.90
14192;DHT22;7177;48.572;7.838;2023-01-15T17:54:28;5.70;99.90
14192;DHT22;7177;48.572;7.838;2023-01-15T17:57:12;5.60;99.90
14192;DHT22;7177;48.572;7.838;2023-01-15T17:59:56;5.60;99.90
14192;DHT22;7177;48.572;7.838;2023-01-15T18:02:40;5.60;99.90
14192;DHT22;7177;48.572;7.838;2023-01-15T18:05:25;5.60;99.90
14192;DHT22;7177;48.572;7.838;2023-01-15T18:07:52;5.60;99.90
14192;DHT22;7177;48.572;7.838;2023-01-15T18:10:21;5.60;99.90
14192;DHT22;7177;48.572;7.838;2023-01-15T18:12:47;5.60;99.90
14192;DHT22;7177;48.572;7.838;2023-01-15T18:15:13;5.50;99.90
14192;DHT22;7177;48.572;7.838;2023-01-15T18:17:39;5.50;99.90
14192;DHT22;7177;48.572;7.838;2023-01-15T18:20:05;5.60;99.90
14192;DHT22;7177;48.572;7.838;2023-01-15T18:22:30;5.60;99.90
14192;DHT22;7177;48.572;7.838;2023-01-15T18:24:56;5.60;99.90
14192;DHT22;7177;48.572;7.838;2023-01-15T18:27:22;5.60;99.90
14192;DHT22;7177;48.572;7.838;2023-01-15T18:29:52;5.60;99.90
14192;DHT22;7177;48.572;7.838;2023-01-15T18:32:17;5.60;99.90